首页
METAR-TAF:

METAR-TAF

机场 :

真纳国际机场

卡拉奇, 巴基斯坦

纬度: 24-54N, 经度: 067-08E, 海拔: 21米

当前天气观测

该预报发布于36分钟前的14:55 UTC
风速10节,风向西转西南
温度 29°C
湿度 66%
气压 1001 hPa
能見度: 5000
多云层高于2000英尺

METAR: OPKC 161455Z 24010KT 5000 HZ BKN020 29/22 Q1001 NOSIG

时间: 20:31 (15:31 UTC)

预报

该预报发布于6小时和1分钟前的09:30 UTC
预报有效从16日的 12点(UTC)到 17日的 18点(UTC)
风速8节,风向西转西南,有时为18节阵风
能見度: 5000
散云层高于2000英尺
多云层高于2500英尺
短暂存在
从 16日的 22点(UTC)到 17日的 02点(UTC)
风速8节,风向西
能見度: 4000
散云层高于1800英尺
多云层高于2500英尺
毛毛雨
从 17日的 0600点(UTC)
风速8节,风向西转西南,有时为18节阵风
能見度: 5000
散云层高于2000英尺
多云层高于3000英尺

TAF: OPKC 160930Z 1612/1718 24008G18KT 5000 HZ SCT020 BKN025 TEMPO 1622/1702 26008KT 4000 DZ SCT018 BKN025 FM170600 24008G18KT 5000 HZ SCT020 BKN030

超过4000个机场的气象观测和天气预报(METAR&TAF报告)。

可查询的气象台以黄色和红色小点在地图上表示。

将鼠标移到小点上方,可查看气象台名称。

然后点击查看天气观测和预报。

如需切换地图:点击带黑十字的绿色按钮放大地图;点击带横线的绿色按钮缩小地图;或者点击绿色箭头查看邻近地区的地图。


METAR-TAF: